createdAt,value
2018-02-03T00:00:07.657Z,99.99
2018-02-03T00:01:07.643Z,99.99
2018-02-03T00:02:28.644Z,99.99
2018-02-03T00:03:07.631Z,99.99
2018-02-03T00:04:07.622Z,99.99
2018-02-03T00:05:07.613Z,99.99
2018-02-03T00:06:07.602Z,99.99
2018-02-03T00:07:07.593Z,99.99
2018-02-03T00:08:28.596Z,99.99
2018-02-03T00:09:07.574Z,99.99
2018-02-03T00:10:07.568Z,99.99
2018-02-03T00:11:07.557Z,99.99
2018-02-03T00:12:07.560Z,99.99
2018-02-03T00:13:07.545Z,99.99
2018-02-03T00:14:28.538Z,99.99
2018-02-03T00:15:07.526Z,99.99
2018-02-03T00:16:07.517Z,99.99
2018-02-03T00:17:07.508Z,99.99
2018-02-03T00:18:07.500Z,99.99
2018-02-03T00:19:07.491Z,99.99
2018-02-03T00:20:28.495Z,99.99
2018-02-03T00:21:07.473Z,99.99
2018-02-03T00:22:07.465Z,99.99
2018-02-03T00:23:07.457Z,99.99
2018-02-03T00:24:07.448Z,99.99
2018-02-03T00:25:07.439Z,99.99
2018-02-03T00:26:28.436Z,99.99
2018-02-03T00:27:07.420Z,99.99
2018-02-03T00:28:07.409Z,99.99
2018-02-03T00:29:07.406Z,99.99
2018-02-03T00:30:07.394Z,99.99
2018-02-03T00:31:07.386Z,99.99
2018-02-03T00:32:28.380Z,99.99
2018-02-03T00:33:07.370Z,99.99
2018-02-03T00:34:07.360Z,99.99
2018-02-03T00:35:07.352Z,99.99
2018-02-03T00:36:07.342Z,99.99
2018-02-03T00:37:07.334Z,99.99
2018-02-03T00:38:28.328Z,99.99
2018-02-03T00:39:07.326Z,99.99
2018-02-03T00:40:07.308Z,99.99
2018-02-03T00:41:07.302Z,99.99
2018-02-03T00:42:07.287Z,99.99
2018-02-03T00:43:07.284Z,99.99
2018-02-03T00:44:28.281Z,99.99
2018-02-03T00:45:07.265Z,99.99
2018-02-03T00:46:07.255Z,99.99
2018-02-03T00:47:07.248Z,99.99
2018-02-03T00:48:07.236Z,99.99
2018-02-03T00:49:07.239Z,99.99
2018-02-03T00:50:28.227Z,99.99
2018-02-03T00:51:07.214Z,99.99
2018-02-03T00:52:07.202Z,99.99
2018-02-03T00:53:07.194Z,99.99
2018-02-03T00:54:07.188Z,99.99
2018-02-03T00:55:07.186Z,99.99
2018-02-03T00:56:28.203Z,99.99
2018-02-03T00:57:07.164Z,99.99
2018-02-03T00:58:07.146Z,99.99
2018-02-03T00:59:07.145Z,99.99
2018-02-03T01:00:07.136Z,99.99
2018-02-03T01:01:07.127Z,99.99
2018-02-03T01:02:28.119Z,99.99
2018-02-03T01:03:07.112Z,99.99
2018-02-03T01:04:07.101Z,99.99
2018-02-03T01:05:07.099Z,99.99
2018-02-03T01:06:07.086Z,99.99
2018-02-03T01:07:07.078Z,99.99
2018-02-03T01:08:28.073Z,99.99
2018-02-03T01:09:07.057Z,99.99
2018-02-03T01:10:07.049Z,99.99
2018-02-03T01:11:07.042Z,99.99
2018-02-03T01:12:07.032Z,99.99
2018-02-03T01:13:07.023Z,99.99
2018-02-03T01:14:28.023Z,99.99
2018-02-03T01:15:07.002Z,99.99
2018-02-03T01:16:07.001Z,99.99
2018-02-03T01:17:06.994Z,99.99
2018-02-03T01:18:06.980Z,99.99
2018-02-03T01:19:06.969Z,99.99
2018-02-03T01:20:27.968Z,99.99
2018-02-03T01:21:06.955Z,99.99
2018-02-03T01:22:06.945Z,99.99
2018-02-03T01:23:06.953Z,99.99
2018-02-03T01:24:06.930Z,99.99
2018-02-03T01:25:06.922Z,99.99
2018-02-03T01:26:27.919Z,99.99
2018-02-03T01:27:06.904Z,99.99
2018-02-03T01:28:06.898Z,99.99
2018-02-03T01:29:06.885Z,99.99
2018-02-03T01:30:06.879Z,99.99
2018-02-03T01:31:06.869Z,99.99
2018-02-03T01:32:27.867Z,99.99
2018-02-03T01:33:06.855Z,99.99
2018-02-03T01:34:06.840Z,99.99
2018-02-03T01:35:06.836Z,99.99
2018-02-03T01:36:06.829Z,99.99
2018-02-03T01:37:06.821Z,99.99
2018-02-03T01:38:27.815Z,99.99
2018-02-03T01:39:06.803Z,99.99
2018-02-03T01:40:06.792Z,99.99
2018-02-03T01:41:06.785Z,99.99
2018-02-03T01:42:06.776Z,99.99
2018-02-03T01:43:06.769Z,99.99
2018-02-03T01:44:27.767Z,99.99
2018-02-03T01:45:06.748Z,99.99
2018-02-03T01:46:06.741Z,99.99
2018-02-03T01:47:06.734Z,99.99
2018-02-03T01:48:06.728Z,99.99
2018-02-03T01:49:06.716Z,99.99
2018-02-03T01:50:27.713Z,99.99
2018-02-03T01:51:06.701Z,99.99
2018-02-03T01:52:06.692Z,99.99
2018-02-03T01:53:06.683Z,99.99
2018-02-03T01:54:06.670Z,99.99
2018-02-03T01:55:06.668Z,99.99
2018-02-03T01:56:27.664Z,99.99
2018-02-03T01:57:06.649Z,99.99
2018-02-03T01:58:06.638Z,99.99
2018-02-03T01:59:06.629Z,99.99
2018-02-03T02:00:06.621Z,99.99
2018-02-03T02:01:06.614Z,99.99
2018-02-03T02:02:27.610Z,99.99
2018-02-03T02:03:06.599Z,99.99
2018-02-03T02:04:06.585Z,99.99
2018-02-03T02:05:06.580Z,99.99
2018-02-03T02:06:06.570Z,99.99
2018-02-03T02:07:06.563Z,99.99
2018-02-03T02:08:27.560Z,99.99
2018-02-03T02:09:06.547Z,99.99
2018-02-03T02:10:06.531Z,99.99
2018-02-03T02:11:06.534Z,99.99
2018-02-03T02:12:06.522Z,99.99
2018-02-03T02:13:06.510Z,99.99
2018-02-03T02:14:27.502Z,99.99
2018-02-03T02:15:06.489Z,99.99
2018-02-03T02:16:06.484Z,99.99
2018-02-03T02:17:06.479Z,99.99
2018-02-03T02:18:06.468Z,99.99
2018-02-03T02:19:06.461Z,99.99
2018-02-03T02:20:27.458Z,99.99
2018-02-03T02:21:06.443Z,99.99
2018-02-03T02:22:06.433Z,99.99
2018-02-03T02:23:06.427Z,99.99
2018-02-03T02:24:06.417Z,99.99
2018-02-03T02:25:06.407Z,99.99
2018-02-03T02:26:27.405Z,99.99
2018-02-03T02:27:06.387Z,99.99
2018-02-03T02:28:06.385Z,99.99
2018-02-03T02:29:06.373Z,99.99
2018-02-03T02:30:06.365Z,99.99
2018-02-03T02:31:06.361Z,99.99
2018-02-03T02:32:27.356Z,99.99
2018-02-03T02:33:06.340Z,99.99
2018-02-03T02:34:06.330Z,99.99
2018-02-03T02:35:06.319Z,99.99
2018-02-03T02:36:06.313Z,99.99
2018-02-03T02:37:06.305Z,99.99
2018-02-03T02:38:27.301Z,99.99
2018-02-03T02:39:06.287Z,99.99
2018-02-03T02:40:06.280Z,99.99
2018-02-03T02:41:06.270Z,99.99
2018-02-03T02:42:06.265Z,99.99
2018-02-03T02:43:06.254Z,99.99
2018-02-03T02:44:27.300Z,99.99
2018-02-03T02:45:06.237Z,99.99
2018-02-03T02:46:06.227Z,99.99
2018-02-03T02:47:06.217Z,99.99
2018-02-03T02:48:06.211Z,99.99
2018-02-03T02:49:06.201Z,99.99
2018-02-03T02:50:27.198Z,99.99
2018-02-03T02:51:06.182Z,99.99
2018-02-03T02:52:06.172Z,99.99
2018-02-03T02:53:06.167Z,99.99
2018-02-03T02:54:06.168Z,99.99
2018-02-03T02:55:06.146Z,99.99
2018-02-03T02:56:27.146Z,99.99
2018-02-03T02:57:06.131Z,99.99
2018-02-03T02:58:06.124Z,99.99
2018-02-03T02:59:06.113Z,99.99
2018-02-03T03:00:06.102Z,99.99
2018-02-03T03:01:06.096Z,99.99
2018-02-03T03:02:27.092Z,99.99
2018-02-03T03:03:06.079Z,99.99
2018-02-03T03:04:06.073Z,99.99
2018-02-03T03:05:06.059Z,99.99
2018-02-03T03:06:06.049Z,99.99
2018-02-03T03:07:06.043Z,99.99
2018-02-03T03:08:27.040Z,99.99
2018-02-03T03:09:06.028Z,99.99
2018-02-03T03:10:06.015Z,99.99
2018-02-03T03:11:06.015Z,99.99
2018-02-03T03:12:06.000Z,99.99
2018-02-03T03:13:05.991Z,99.99
2018-02-03T03:14:26.986Z,99.99
2018-02-03T03:15:05.976Z,99.99
2018-02-03T03:16:05.963Z,99.99
2018-02-03T03:17:07.382Z,99.99
2018-02-03T03:18:05.950Z,99.99
2018-02-03T03:19:05.950Z,99.99
2018-02-03T03:20:27.459Z,99.99
2018-02-03T03:21:05.925Z,99.99
2018-02-03T03:22:05.912Z,99.99
2018-02-03T03:23:05.906Z,99.99
2018-02-03T03:24:05.897Z,99.99
2018-02-03T03:25:05.890Z,99.99
2018-02-03T03:26:26.881Z,99.99
2018-02-03T03:27:05.873Z,99.99
2018-02-03T03:28:05.861Z,99.99
2018-02-03T03:29:05.855Z,99.99
2018-02-03T03:30:05.847Z,99.99
2018-02-03T03:31:05.839Z,99.99
2018-02-03T03:32:26.831Z,99.99
2018-02-03T03:33:05.819Z,99.99
2018-02-03T03:34:05.810Z,99.99
2018-02-03T03:35:05.801Z,99.99
2018-02-03T03:36:05.795Z,99.99
2018-02-03T03:37:05.786Z,99.99
2018-02-03T03:38:26.779Z,99.99
2018-02-03T03:39:05.770Z,99.99
2018-02-03T03:40:05.759Z,99.99
2018-02-03T03:41:05.745Z,99.99
2018-02-03T03:42:05.739Z,99.99
2018-02-03T03:43:05.730Z,99.99
2018-02-03T03:44:26.747Z,99.99
2018-02-03T03:45:05.715Z,99.99
2018-02-03T03:46:05.706Z,99.99
2018-02-03T03:47:05.693Z,99.99
2018-02-03T03:48:05.690Z,99.99
2018-02-03T03:49:05.681Z,99.99
2018-02-03T03:50:26.679Z,99.99
2018-02-03T03:51:05.663Z,99.99
2018-02-03T03:52:05.654Z,99.99
2018-02-03T03:53:05.645Z,99.99
2018-02-03T03:54:05.637Z,99.99
2018-02-03T03:55:05.628Z,99.99
2018-02-03T03:56:26.626Z,99.99
2018-02-03T03:57:05.608Z,99.99
2018-02-03T03:58:05.601Z,99.99
2018-02-03T03:59:05.631Z,99.99
2018-02-03T04:00:05.587Z,99.99
2018-02-03T04:01:05.575Z,99.99
2018-02-03T04:02:27.469Z,99.99
2018-02-03T04:03:05.554Z,99.99
2018-02-03T04:04:05.548Z,99.99
2018-02-03T04:05:05.543Z,99.99
2018-02-03T04:06:05.531Z,99.99
2018-02-03T04:07:05.519Z,99.99
2018-02-03T04:08:26.524Z,99.99
2018-02-03T04:09:05.506Z,99.99
2018-02-03T04:10:05.522Z,99.99
2018-02-03T04:11:05.487Z,99.99
2018-02-03T04:12:05.486Z,99.99
2018-02-03T04:13:05.471Z,99.99
2018-02-03T04:14:26.469Z,99.99
2018-02-03T04:15:05.451Z,99.99
2018-02-03T04:16:05.449Z,99.99
2018-02-03T04:17:05.439Z,99.99
2018-02-03T04:18:05.428Z,99.99
2018-02-03T04:19:05.419Z,99.99
2018-02-03T04:20:26.417Z,99.99
2018-02-03T04:21:05.403Z,99.99
2018-02-03T04:22:05.394Z,99.99
2018-02-03T04:23:05.386Z,99.99
2018-02-03T04:24:05.373Z,99.99
2018-02-03T04:25:05.367Z,99.99
2018-02-03T04:26:26.363Z,99.99
2018-02-03T04:27:05.346Z,99.99
2018-02-03T04:28:05.352Z,99.99
2018-02-03T04:29:05.333Z,99.99
2018-02-03T04:30:05.325Z,99.99
2018-02-03T04:31:05.317Z,99.99
2018-02-03T04:32:26.315Z,99.99
2018-02-03T04:33:05.301Z,99.99
2018-02-03T04:34:05.285Z,99.99
2018-02-03T04:35:05.281Z,99.99
2018-02-03T04:36:05.273Z,99.99
2018-02-03T04:37:05.264Z,99.99
2018-02-03T04:38:26.260Z,99.99
2018-02-03T04:39:05.243Z,99.99
2018-02-03T04:40:05.242Z,99.99
2018-02-03T04:41:05.232Z,99.99
2018-02-03T04:42:05.226Z,99.99
2018-02-03T04:43:05.220Z,99.99
2018-02-03T04:44:26.206Z,99.99
2018-02-03T04:45:05.195Z,99.99
2018-02-03T04:46:05.185Z,99.99
2018-02-03T04:47:05.184Z,99.99
2018-02-03T04:48:05.166Z,99.99
2018-02-03T04:49:05.157Z,99.99
2018-02-03T04:50:26.157Z,99.99
2018-02-03T04:51:05.142Z,99.99
2018-02-03T04:52:05.133Z,99.99
2018-02-03T04:53:05.126Z,99.99
2018-02-03T04:54:05.127Z,99.99
2018-02-03T04:55:05.107Z,99.99
2018-02-03T04:56:26.106Z,99.99
2018-02-03T04:57:05.093Z,99.99
2018-02-03T04:58:05.082Z,99.99
2018-02-03T04:59:05.076Z,99.99
2018-02-03T05:00:05.067Z,99.99
2018-02-03T05:01:05.055Z,99.99
2018-02-03T05:02:26.051Z,99.99
2018-02-03T05:03:05.039Z,99.99
2018-02-03T05:04:05.030Z,99.99
2018-02-03T05:05:05.019Z,99.99
2018-02-03T05:06:05.067Z,99.99
2018-02-03T05:07:05.005Z,99.99
2018-02-03T05:08:25.999Z,99.99
2018-02-03T05:09:04.988Z,99.99
2018-02-03T05:10:04.998Z,99.99
2018-02-03T05:11:04.972Z,99.99
2018-02-03T05:12:05.149Z,99.99
2018-02-03T05:13:04.968Z,99.99
2018-02-03T05:14:25.950Z,99.99
2018-02-03T05:15:04.931Z,99.99
2018-02-03T05:16:04.932Z,99.99
2018-02-03T05:17:04.930Z,99.99
2018-02-03T05:18:04.919Z,99.99
2018-02-03T05:19:04.896Z,99.99
2018-02-03T05:20:25.897Z,99.99
2018-02-03T05:21:04.883Z,99.99
2018-02-03T05:22:04.874Z,99.99
2018-02-03T05:23:04.869Z,99.99
2018-02-03T05:24:04.861Z,99.99
2018-02-03T05:25:04.845Z,99.99
2018-02-03T05:26:25.844Z,99.99
2018-02-03T05:27:04.835Z,99.99
2018-02-03T05:28:04.827Z,99.99
2018-02-03T05:29:04.811Z,99.99
2018-02-03T05:30:04.833Z,99.99
2018-02-03T05:31:04.803Z,99.99
2018-02-03T05:32:25.795Z,99.99
2018-02-03T05:33:04.780Z,99.99
2018-02-03T05:34:04.770Z,99.99
2018-02-03T05:35:04.764Z,99.99
2018-02-03T05:36:04.754Z,99.99
2018-02-03T05:37:04.752Z,99.99
2018-02-03T05:38:25.747Z,99.99
2018-02-03T05:39:04.730Z,99.99
2018-02-03T05:40:04.715Z,99.99
2018-02-03T05:41:04.719Z,99.99
2018-02-03T05:42:04.703Z,99.99
2018-02-03T05:43:04.692Z,99.99
2018-02-03T05:44:25.693Z,99.99
2018-02-03T05:45:04.672Z,99.99
2018-02-03T05:46:04.662Z,99.99
2018-02-03T05:47:04.658Z,99.99
2018-02-03T05:48:04.653Z,99.99
2018-02-03T05:49:04.640Z,99.99
2018-02-03T05:50:25.637Z,99.99
2018-02-03T05:51:04.624Z,99.99
2018-02-03T05:52:04.619Z,99.99
2018-02-03T05:53:04.605Z,99.99
2018-02-03T05:54:04.595Z,99.99
2018-02-03T05:55:04.583Z,99.99
2018-02-03T05:56:25.586Z,99.99
2018-02-03T05:57:04.569Z,99.99
2018-02-03T05:58:04.560Z,99.99
2018-02-03T05:59:04.552Z,99.99
2018-02-03T06:00:04.550Z,99.99
2018-02-03T06:01:04.535Z,99.99
2018-02-03T06:02:25.532Z,99.99
2018-02-03T06:03:04.518Z,99.99
2018-02-03T06:04:04.509Z,99.99
2018-02-03T06:05:04.501Z,99.99
2018-02-03T06:06:04.486Z,99.99
2018-02-03T06:07:04.483Z,99.99
2018-02-03T06:08:25.479Z,99.99
2018-02-03T06:09:04.463Z,99.99
2018-02-03T06:10:04.456Z,99.99
2018-02-03T06:11:04.448Z,99.99
2018-02-03T06:12:04.438Z,99.99
2018-02-03T06:13:04.431Z,99.99
2018-02-03T06:14:25.426Z,99.99
2018-02-03T06:15:04.412Z,99.99
2018-02-03T06:16:04.399Z,99.99
2018-02-03T06:17:04.388Z,99.99
2018-02-03T06:18:04.385Z,99.99
2018-02-03T06:19:04.375Z,99.99
2018-02-03T06:20:25.367Z,99.99
2018-02-03T06:21:04.355Z,99.99
2018-02-03T06:22:04.348Z,99.99
2018-02-03T06:23:04.335Z,99.99
2018-02-03T06:24:04.338Z,99.99
2018-02-03T06:25:04.320Z,99.99
2018-02-03T06:26:25.311Z,99.99
2018-02-03T06:27:04.299Z,99.99
2018-02-03T06:28:04.291Z,99.99
2018-02-03T06:29:04.282Z,99.99
2018-02-03T06:30:04.272Z,99.99
2018-02-03T06:31:04.265Z,99.99
2018-02-03T06:32:25.262Z,99.99
2018-02-03T06:33:04.246Z,99.99
2018-02-03T06:34:04.239Z,99.99
2018-02-03T06:35:04.233Z,99.99
2018-02-03T06:36:04.224Z,99.99
2018-02-03T06:37:04.208Z,99.99
2018-02-03T06:38:25.205Z,99.99
2018-02-03T06:39:04.192Z,99.99
2018-02-03T06:40:04.184Z,99.99
2018-02-03T06:41:04.174Z,99.99
2018-02-03T06:42:04.170Z,99.99
2018-02-03T06:43:04.155Z,99.99
2018-02-03T06:44:25.156Z,99.99
2018-02-03T06:45:04.150Z,99.99
2018-02-03T06:46:04.126Z,99.99
2018-02-03T06:47:04.117Z,99.99
2018-02-03T06:48:05.004Z,99.99
2018-02-03T06:49:04.101Z,99.99
2018-02-03T06:50:25.099Z,99.99
2018-02-03T06:51:04.080Z,99.99
2018-02-03T06:52:04.074Z,99.99
2018-02-03T06:53:04.084Z,99.99
2018-02-03T06:54:04.055Z,99.99
2018-02-03T06:55:04.048Z,99.99
2018-02-03T06:56:25.043Z,99.99
2018-02-03T06:57:04.026Z,99.99
2018-02-03T06:58:04.021Z,99.99
2018-02-03T06:59:04.011Z,99.99
2018-02-03T07:00:04.003Z,99.99
2018-02-03T07:01:03.997Z,99.99
2018-02-03T07:02:24.988Z,99.99
2018-02-03T07:03:03.974Z,99.99
2018-02-03T07:04:03.965Z,99.99
2018-02-03T07:05:03.958Z,99.99
2018-02-03T07:06:03.947Z,99.99
2018-02-03T07:07:03.934Z,99.99
2018-02-03T07:08:24.941Z,99.99
2018-02-03T07:09:03.920Z,99.99
2018-02-03T07:10:03.911Z,99.99
2018-02-03T07:11:03.896Z,99.99
2018-02-03T07:12:03.895Z,99.99
2018-02-03T07:13:03.886Z,99.99
2018-02-03T07:14:24.880Z,99.99
2018-02-03T07:15:03.866Z,99.99
2018-02-03T07:16:03.857Z,99.99
2018-02-03T07:17:03.846Z,99.99
2018-02-03T07:18:03.862Z,99.99
2018-02-03T07:19:03.833Z,99.99
2018-02-03T07:20:24.833Z,99.99
2018-02-03T07:21:03.814Z,99.99
2018-02-03T07:22:03.809Z,99.99
2018-02-03T07:23:03.800Z,99.99
2018-02-03T07:24:03.805Z,99.99
2018-02-03T07:25:03.775Z,99.99
2018-02-03T07:26:24.774Z,99.99
2018-02-03T07:27:03.756Z,99.99
2018-02-03T07:28:03.751Z,99.99
2018-02-03T07:29:03.754Z,99.99
2018-02-03T07:30:03.767Z,99.99
2018-02-03T07:31:03.732Z,99.99
2018-02-03T07:32:24.721Z,99.99
2018-02-03T07:33:04.481Z,99.99
2018-02-03T07:34:03.724Z,99.99
2018-02-03T07:35:03.710Z,99.99
2018-02-03T07:36:03.688Z,99.99
2018-02-03T07:37:03.671Z,99.99
2018-02-03T07:38:24.664Z,99.99
2018-02-03T07:39:03.650Z,99.99
2018-02-03T07:40:03.655Z,99.99
2018-02-03T07:41:03.666Z,99.99
2018-02-03T07:42:03.617Z,99.99
2018-02-03T07:43:03.622Z,99.99
2018-02-03T07:44:24.616Z,99.99
2018-02-03T07:45:03.598Z,99.99
2018-02-03T07:46:03.604Z,99.99
2018-02-03T07:47:03.582Z,99.99
2018-02-03T07:48:03.573Z,99.99
2018-02-03T07:49:03.561Z,99.99
2018-02-03T07:50:24.561Z,99.99
2018-02-03T07:51:03.547Z,99.99
2018-02-03T07:52:03.553Z,99.99
2018-02-03T07:53:03.541Z,99.99
2018-02-03T07:54:03.528Z,99.99
2018-02-03T07:55:03.511Z,99.99
2018-02-03T07:56:24.509Z,99.99
2018-02-03T07:57:03.501Z,99.99
2018-02-03T07:58:03.485Z,99.99
2018-02-03T07:59:03.476Z,99.99
2018-02-03T08:00:03.468Z,99.99
2018-02-03T08:01:03.459Z,99.99
2018-02-03T08:02:24.451Z,99.99
2018-02-03T08:03:03.440Z,99.99
2018-02-03T08:04:03.444Z,99.99
2018-02-03T08:05:03.426Z,99.99
2018-02-03T08:06:03.414Z,99.99
2018-02-03T08:07:03.406Z,99.99
2018-02-03T08:08:24.401Z,99.99
2018-02-03T08:09:03.383Z,99.99
2018-02-03T08:10:03.384Z,99.99
2018-02-03T08:11:03.369Z,99.99
2018-02-03T08:12:03.361Z,99.99
2018-02-03T08:13:03.352Z,99.99
2018-02-03T08:14:24.350Z,99.99
2018-02-03T08:15:03.332Z,99.99
2018-02-03T08:16:03.326Z,99.99
2018-02-03T08:17:03.320Z,99.99
2018-02-03T08:18:03.310Z,99.99
2018-02-03T08:19:03.298Z,99.99
2018-02-03T08:20:24.297Z,99.99
2018-02-03T08:21:03.283Z,99.99
2018-02-03T08:22:03.274Z,99.99
2018-02-03T08:23:03.265Z,99.99
2018-02-03T08:24:03.254Z,99.99
2018-02-03T08:25:03.250Z,99.99
2018-02-03T08:26:24.246Z,99.99
2018-02-03T08:27:03.233Z,99.99
2018-02-03T08:28:03.223Z,99.99
2018-02-03T08:29:03.214Z,99.99
2018-02-03T08:30:03.205Z,99.99
2018-02-03T08:31:03.197Z,99.99
2018-02-03T08:32:24.194Z,99.99
2018-02-03T08:33:03.178Z,99.99
2018-02-03T08:34:04.025Z,99.99
2018-02-03T08:35:03.162Z,99.99
2018-02-03T08:36:03.154Z,99.99
2018-02-03T08:37:03.144Z,99.99
2018-02-03T08:38:24.145Z,99.99
2018-02-03T08:39:03.128Z,99.99
2018-02-03T08:40:03.116Z,99.99
2018-02-03T08:41:03.111Z,99.99
2018-02-03T08:42:03.104Z,99.99
2018-02-03T08:43:03.093Z,99.99
2018-02-03T08:44:24.088Z,99.99
2018-02-03T08:45:03.078Z,99.99
2018-02-03T08:46:03.075Z,99.99
2018-02-03T08:47:03.062Z,99.99
2018-02-03T08:48:04.047Z,99.99
2018-02-03T08:49:03.043Z,99.99
2018-02-03T08:50:24.046Z,99.99
2018-02-03T08:51:03.027Z,99.99
2018-02-03T08:52:03.020Z,99.99
2018-02-03T08:53:03.008Z,99.99
2018-02-03T08:54:02.997Z,99.99
2018-02-03T08:55:02.998Z,99.99
2018-02-03T08:56:23.997Z,99.99
2018-02-03T08:57:02.972Z,99.99
2018-02-03T08:58:02.965Z,99.99
2018-02-03T08:59:02.965Z,99.99
2018-02-03T09:00:02.946Z,99.99
2018-02-03T09:01:02.943Z,99.99
2018-02-03T09:02:23.973Z,99.99
2018-02-03T09:03:02.926Z,99.99
2018-02-03T09:04:02.912Z,99.99
2018-02-03T09:05:02.909Z,99.99
2018-02-03T09:06:02.898Z,99.99
2018-02-03T09:07:02.894Z,99.99
2018-02-03T09:08:23.887Z,99.99
2018-02-03T09:09:02.874Z,99.99
2018-02-03T09:10:02.868Z,99.99
2018-02-03T09:11:02.857Z,99.99
2018-02-03T09:12:02.848Z,99.99
2018-02-03T09:13:02.841Z,99.99
2018-02-03T09:14:23.836Z,99.99
2018-02-03T09:15:02.824Z,99.99
2018-02-03T09:16:02.822Z,99.99
2018-02-03T09:17:02.816Z,99.99
2018-02-03T09:18:02.796Z,99.99
2018-02-03T09:19:02.787Z,99.99
2018-02-03T09:20:23.785Z,99.99
2018-02-03T09:21:02.767Z,99.99
2018-02-03T09:22:02.762Z,99.99
2018-02-03T09:23:03.504Z,99.99
2018-02-03T09:24:02.746Z,99.99
2018-02-03T09:25:02.736Z,99.99
2018-02-03T09:26:23.778Z,99.99
2018-02-03T09:27:02.719Z,99.99
2018-02-03T09:28:02.710Z,99.99
2018-02-03T09:29:02.704Z,99.99
2018-02-03T09:30:02.692Z,99.99
2018-02-03T09:31:02.682Z,99.99
2018-02-03T09:32:23.678Z,99.99
2018-02-03T09:33:02.668Z,99.99
2018-02-03T09:34:02.659Z,99.99
2018-02-03T09:35:02.646Z,99.99
2018-02-03T09:36:02.641Z,99.99
2018-02-03T09:37:02.634Z,99.99
2018-02-03T09:38:23.634Z,99.99
2018-02-03T09:39:02.617Z,99.99
2018-02-03T09:40:02.609Z,99.99
2018-02-03T09:41:02.601Z,99.99
2018-02-03T09:42:02.588Z,99.99
2018-02-03T09:43:02.581Z,99.99
2018-02-03T09:44:23.579Z,99.99
2018-02-03T09:45:02.610Z,99.99
2018-02-03T09:46:02.555Z,99.99
2018-02-03T09:47:02.549Z,99.99
2018-02-03T09:48:02.540Z,99.99
2018-02-03T09:49:02.537Z,99.99
2018-02-03T09:50:23.563Z,99.99
2018-02-03T09:51:02.515Z,99.99
2018-02-03T09:52:02.503Z,99.99
2018-02-03T09:53:02.499Z,99.99
2018-02-03T09:54:02.489Z,99.99
2018-02-03T09:55:02.477Z,99.99
2018-02-03T09:56:23.507Z,99.34
2018-02-03T09:57:02.464Z,98.96
2018-02-03T09:58:02.458Z,99.06
2018-02-03T09:59:02.445Z,99.15
2018-02-03T10:00:02.441Z,97.54
2018-02-03T10:01:02.429Z,97.40
2018-02-03T10:02:23.423Z,97.02
2018-02-03T10:03:02.413Z,96.97
2018-02-03T10:04:02.404Z,96.55
2018-02-03T10:05:02.406Z,93.61
2018-02-03T10:06:02.386Z,91.71
2018-02-03T10:07:02.379Z,90.48
2018-02-03T10:08:23.378Z,89.25
2018-02-03T10:09:02.364Z,88.58
2018-02-03T10:10:02.355Z,87.73
2018-02-03T10:11:02.349Z,86.21
2018-02-03T10:12:02.336Z,86.02
2018-02-03T10:13:02.344Z,85.64
2018-02-03T10:14:23.325Z,85.17
2018-02-03T10:15:02.315Z,85.07
2018-02-03T10:16:02.304Z,85.07
2018-02-03T10:17:02.301Z,85.83
2018-02-03T10:18:02.291Z,86.11
2018-02-03T10:19:02.284Z,85.26
2018-02-03T10:20:23.284Z,84.50
2018-02-03T10:21:02.268Z,84.69
2018-02-03T10:22:02.254Z,83.74
2018-02-03T10:23:02.253Z,83.69
2018-02-03T10:24:02.242Z,84.26
2018-02-03T10:25:02.234Z,83.78
2018-02-03T10:26:23.231Z,83.88
2018-02-03T10:27:02.218Z,82.84
2018-02-03T10:28:02.209Z,82.98
2018-02-03T10:29:02.203Z,83.27
2018-02-03T10:30:02.196Z,82.46
2018-02-03T10:31:02.188Z,82.74
2018-02-03T10:32:23.188Z,82.27
2018-02-03T10:33:02.172Z,79.71
2018-02-03T10:34:02.167Z,79.71
2018-02-03T10:35:02.152Z,80.75
2018-02-03T10:36:02.148Z,80.75
2018-02-03T10:37:02.140Z,79.80
2018-02-03T10:38:23.138Z,78.85
2018-02-03T10:39:02.125Z,77.43
2018-02-03T10:40:02.116Z,77.52
2018-02-03T10:41:02.108Z,77.33
2018-02-03T10:42:02.098Z,76.01
2018-02-03T10:43:02.093Z,77.05
2018-02-03T10:44:23.106Z,75.91
2018-02-03T10:45:02.077Z,76.39
2018-02-03T10:46:02.075Z,77.33
2018-02-03T10:47:02.061Z,77.71
2018-02-03T10:48:02.056Z,77.43
2018-02-03T10:49:02.050Z,78.85
2018-02-03T10:50:23.047Z,79.42
2018-02-03T10:51:02.032Z,78.95
2018-02-03T10:52:02.027Z,79.42
2018-02-03T10:53:02.019Z,77.71
2018-02-03T10:54:02.013Z,77.81
2018-02-03T10:55:02.010Z,79.71
2018-02-03T10:56:23.004Z,78.95
2018-02-03T10:57:01.988Z,78.47
2018-02-03T10:58:02.495Z,79.04
2018-02-03T10:59:01.977Z,78.85
2018-02-03T11:00:01.966Z,78.47
2018-02-03T11:01:01.960Z,79.04
2018-02-03T11:02:22.956Z,78.66
2018-02-03T11:03:01.943Z,78.09
2018-02-03T11:04:01.932Z,77.52
2018-02-03T11:05:01.930Z,78.95
2018-02-03T11:06:01.924Z,79.71
2018-02-03T11:07:01.915Z,78.56
2018-02-03T11:08:22.913Z,78.62
2018-02-03T11:09:01.898Z,79.99
2018-02-03T11:10:01.890Z,80.18
2018-02-03T11:11:01.885Z,80.27
2018-02-03T11:12:01.876Z,79.71
2018-02-03T11:13:01.865Z,80.65
2018-02-03T11:14:22.862Z,81.41
2018-02-03T11:15:01.873Z,80.94
2018-02-03T11:16:01.847Z,81.04
2018-02-03T11:17:01.840Z,81.70
2018-02-03T11:18:01.831Z,81.51
2018-02-03T11:19:01.823Z,81.51
2018-02-03T11:20:22.821Z,81.41
2018-02-03T11:21:01.808Z,80.75
2018-02-03T11:22:01.802Z,79.80
2018-02-03T11:23:01.793Z,80.27
2018-02-03T11:24:01.783Z,79.33
2018-02-03T11:25:01.778Z,79.14
2018-02-03T11:26:22.775Z,79.14
2018-02-03T11:27:01.767Z,78.47
2018-02-03T11:28:01.751Z,78.38
2018-02-03T11:29:01.748Z,77.24
2018-02-03T11:30:01.738Z,77.71
2018-02-03T11:31:01.733Z,77.81
2018-02-03T11:32:22.733Z,76.95
2018-02-03T11:33:01.716Z,76.29
2018-02-03T11:34:01.704Z,76.29
2018-02-03T11:35:01.703Z,76.52
2018-02-03T11:36:01.693Z,76.67
2018-02-03T11:37:01.686Z,75.38
2018-02-03T11:38:22.683Z,75.15
2018-02-03T11:39:01.670Z,74.49
2018-02-03T11:40:01.663Z,75.24
2018-02-03T11:41:01.657Z,74.58
2018-02-03T11:42:01.651Z,74.39
2018-02-03T11:43:01.641Z,73.25
2018-02-03T11:44:22.638Z,74.30
2018-02-03T11:45:01.629Z,74.96
2018-02-03T11:46:01.619Z,75.38
2018-02-03T11:47:01.611Z,75.09
2018-02-03T11:48:01.602Z,74.43
2018-02-03T11:49:01.612Z,74.71
2018-02-03T11:50:22.593Z,73.96
2018-02-03T11:51:01.585Z,73.48
2018-02-03T11:52:01.576Z,73.57
2018-02-03T11:53:01.570Z,73.07
2018-02-03T11:54:01.562Z,73.82
2018-02-03T11:55:01.556Z,73.35
2018-02-03T11:56:22.553Z,73.63
2018-02-03T11:57:01.539Z,73.25
2018-02-03T11:58:01.535Z,73.44
2018-02-03T11:59:01.565Z,72.78
2018-02-03T12:00:01.518Z,73.25
2018-02-03T12:01:01.537Z,73.54
2018-02-03T12:02:22.510Z,73.25
2018-02-03T12:03:01.499Z,72.30
2018-02-03T12:04:01.489Z,72.40
2018-02-03T12:05:01.484Z,73.63
2018-02-03T12:06:01.477Z,73.76
2018-02-03T12:07:01.468Z,73.25
2018-02-03T12:08:22.464Z,73.57
2018-02-03T12:09:01.451Z,73.63
2018-02-03T12:10:01.448Z,73.35
2018-02-03T12:11:01.440Z,74.77
2018-02-03T12:12:01.435Z,75.91
2018-02-03T12:13:01.425Z,76.01
2018-02-03T12:14:22.422Z,75.34
2018-02-03T12:15:01.441Z,74.58
2018-02-03T12:16:01.404Z,74.30
2018-02-03T12:17:01.406Z,75.43
2018-02-03T12:18:01.389Z,75.34
2018-02-03T12:19:01.378Z,74.87
2018-02-03T12:20:22.382Z,75.00
2018-02-03T12:21:01.365Z,74.71
2018-02-03T12:22:01.360Z,75.67
2018-02-03T12:23:01.350Z,75.85
2018-02-03T12:24:01.347Z,75.91
2018-02-03T12:25:01.337Z,75.67
2018-02-03T12:26:22.335Z,75.91
2018-02-03T12:27:01.326Z,77.05
2018-02-03T12:28:01.317Z,78.00
2018-02-03T12:29:01.302Z,76.67
2018-02-03T12:30:01.301Z,76.20
2018-02-03T12:31:01.298Z,75.62
2018-02-03T12:32:22.294Z,75.53
2018-02-03T12:33:01.287Z,76.48
2018-02-03T12:34:01.272Z,76.48
2018-02-03T12:35:01.267Z,75.72
2018-02-03T12:36:01.258Z,76.20
2018-02-03T12:37:01.254Z,75.72
2018-02-03T12:38:22.252Z,76.20
2018-02-03T12:39:01.242Z,76.67
2018-02-03T12:40:01.232Z,75.81
2018-02-03T12:41:01.226Z,74.77
2018-02-03T12:42:01.217Z,75.62
2018-02-03T12:43:01.210Z,75.34
2018-02-03T12:44:22.216Z,75.53
2018-02-03T12:45:01.195Z,75.81
2018-02-03T12:46:01.186Z,76.20
2018-02-03T12:47:01.189Z,76.39
2018-02-03T12:48:01.175Z,76.29
2018-02-03T12:49:01.166Z,76.57
2018-02-03T12:50:22.164Z,77.05
2018-02-03T12:51:01.151Z,77.24
2018-02-03T12:52:01.145Z,77.14